sensor_id;sensor_type;location;lat;lon;timestamp;P1;durP1;ratioP1;P2;durP2;ratioP2
7931;SDS011;4011;49.424;10.894;2023-06-22T00:02:51;5.63;;;4.40;;
7931;SDS011;4011;49.424;10.894;2023-06-22T00:08:14;5.80;;;4.68;;
7931;SDS011;4011;49.424;10.894;2023-06-22T00:13:36;6.25;;;4.90;;
7931;SDS011;4011;49.424;10.894;2023-06-22T00:18:58;5.90;;;5.25;;
7931;SDS011;4011;49.424;10.894;2023-06-22T00:24:23;5.90;;;4.82;;
7931;SDS011;4011;49.424;10.894;2023-06-22T00:29:45;6.93;;;4.40;;
7931;SDS011;4011;49.424;10.894;2023-06-22T00:35:07;5.95;;;4.60;;
7931;SDS011;4011;49.424;10.894;2023-06-22T00:40:32;6.25;;;4.95;;
7931;SDS011;4011;49.424;10.894;2023-06-22T00:45:55;5.72;;;4.72;;
7931;SDS011;4011;49.424;10.894;2023-06-22T00:51:16;5.40;;;4.53;;
7931;SDS011;4011;49.424;10.894;2023-06-22T00:56:47;6.43;;;4.97;;
7931;SDS011;4011;49.424;10.894;2023-06-22T01:02:09;5.63;;;4.43;;
7931;SDS011;4011;49.424;10.894;2023-06-22T01:07:31;5.97;;;4.80;;
7931;SDS011;4011;49.424;10.894;2023-06-22T01:13:02;6.22;;;4.38;;
7931;SDS011;4011;49.424;10.894;2023-06-22T01:18:25;6.78;;;4.78;;
7931;SDS011;4011;49.424;10.894;2023-06-22T01:23:51;6.05;;;4.78;;
7931;SDS011;4011;49.424;10.894;2023-06-22T01:34:37;5.57;;;4.35;;
7931;SDS011;4011;49.424;10.894;2023-06-22T01:40:00;6.47;;;4.93;;
7931;SDS011;4011;49.424;10.894;2023-06-22T01:45:23;6.97;;;4.60;;
7931;SDS011;4011;49.424;10.894;2023-06-22T01:50:47;6.65;;;4.40;;
7931;SDS011;4011;49.424;10.894;2023-06-22T01:56:09;6.13;;;4.53;;
7931;SDS011;4011;49.424;10.894;2023-06-22T02:01:31;5.88;;;4.75;;
7931;SDS011;4011;49.424;10.894;2023-06-22T02:06:56;7.57;;;4.95;;
7931;SDS011;4011;49.424;10.894;2023-06-22T02:12:21;6.50;;;4.50;;
7931;SDS011;4011;49.424;10.894;2023-06-22T02:17:43;6.45;;;4.70;;
7931;SDS011;4011;49.424;10.894;2023-06-22T02:23:07;5.50;;;5.00;;
7931;SDS011;4011;49.424;10.894;2023-06-22T02:28:32;6.07;;;4.45;;
7931;SDS011;4011;49.424;10.894;2023-06-22T02:33:53;6.28;;;5.03;;
7931;SDS011;4011;49.424;10.894;2023-06-22T02:39:17;5.40;;;4.53;;
7931;SDS011;4011;49.424;10.894;2023-06-22T02:44:38;6.25;;;5.13;;
7931;SDS011;4011;49.424;10.894;2023-06-22T02:50:00;6.47;;;5.00;;
7931;SDS011;4011;49.424;10.894;2023-06-22T02:55:23;6.50;;;4.40;;
7931;SDS011;4011;49.424;10.894;2023-06-22T03:00:45;5.20;;;4.35;;
7931;SDS011;4011;49.424;10.894;2023-06-22T03:06:06;8.35;;;4.78;;
7931;SDS011;4011;49.424;10.894;2023-06-22T03:11:29;6.10;;;4.88;;
7931;SDS011;4011;49.424;10.894;2023-06-22T03:16:51;7.30;;;4.22;;
7931;SDS011;4011;49.424;10.894;2023-06-22T03:22:12;6.05;;;4.40;;
7931;SDS011;4011;49.424;10.894;2023-06-22T03:27:36;7.07;;;5.25;;
7931;SDS011;4011;49.424;10.894;2023-06-22T03:32:58;6.75;;;5.13;;
7931;SDS011;4011;49.424;10.894;2023-06-22T03:38:20;6.90;;;4.75;;
7931;SDS011;4011;49.424;10.894;2023-06-22T03:43:43;5.80;;;4.47;;
7931;SDS011;4011;49.424;10.894;2023-06-22T03:49:05;5.68;;;4.28;;
7931;SDS011;4011;49.424;10.894;2023-06-22T03:54:30;6.78;;;4.90;;
7931;SDS011;4011;49.424;10.894;2023-06-22T03:59:54;7.15;;;4.70;;
7931;SDS011;4011;49.424;10.894;2023-06-22T04:05:15;6.65;;;4.72;;
7931;SDS011;4011;49.424;10.894;2023-06-22T04:10:39;5.97;;;4.40;;
7931;SDS011;4011;49.424;10.894;2023-06-22T04:16:04;7.07;;;4.55;;
7931;SDS011;4011;49.424;10.894;2023-06-22T04:21:25;7.35;;;4.88;;
7931;SDS011;4011;49.424;10.894;2023-06-22T04:26:47;8.95;;;5.20;;
7931;SDS011;4011;49.424;10.894;2023-06-22T04:32:10;7.88;;;6.18;;
7931;SDS011;4011;49.424;10.894;2023-06-22T04:37:33;9.45;;;6.93;;
7931;SDS011;4011;49.424;10.894;2023-06-22T04:42:58;10.57;;;6.90;;
7931;SDS011;4011;49.424;10.894;2023-06-22T04:48:25;9.43;;;6.88;;
7931;SDS011;4011;49.424;10.894;2023-06-22T04:53:52;10.23;;;6.72;;
7931;SDS011;4011;49.424;10.894;2023-06-22T04:59:21;8.50;;;7.25;;
7931;SDS011;4011;49.424;10.894;2023-06-22T05:04:51;10.48;;;7.75;;
7931;SDS011;4011;49.424;10.894;2023-06-22T05:10:12;9.98;;;6.93;;
7931;SDS011;4011;49.424;10.894;2023-06-22T05:15:34;9.45;;;6.93;;
7931;SDS011;4011;49.424;10.894;2023-06-22T05:21:01;8.02;;;6.50;;
7931;SDS011;4011;49.424;10.894;2023-06-22T05:26:24;9.15;;;6.97;;
7931;SDS011;4011;49.424;10.894;2023-06-22T05:31:45;9.30;;;7.13;;
7931;SDS011;4011;49.424;10.894;2023-06-22T05:37:08;10.77;;;6.97;;
7931;SDS011;4011;49.424;10.894;2023-06-22T05:42:30;9.13;;;6.80;;
7931;SDS011;4011;49.424;10.894;2023-06-22T05:47:52;9.55;;;6.70;;
7931;SDS011;4011;49.424;10.894;2023-06-22T05:53:15;8.80;;;6.97;;
7931;SDS011;4011;49.424;10.894;2023-06-22T05:58:37;9.77;;;7.10;;
7931;SDS011;4011;49.424;10.894;2023-06-22T06:03:59;9.10;;;6.63;;
7931;SDS011;4011;49.424;10.894;2023-06-22T06:09:22;9.25;;;6.60;;
7931;SDS011;4011;49.424;10.894;2023-06-22T06:14:43;9.35;;;6.95;;
7931;SDS011;4011;49.424;10.894;2023-06-22T06:20:06;8.82;;;6.40;;
7931;SDS011;4011;49.424;10.894;2023-06-22T06:25:29;9.23;;;6.95;;
7931;SDS011;4011;49.424;10.894;2023-06-22T06:30:51;11.23;;;6.15;;
7931;SDS011;4011;49.424;10.894;2023-06-22T06:36:13;7.60;;;6.43;;
7931;SDS011;4011;49.424;10.894;2023-06-22T06:41:39;7.78;;;6.07;;
7931;SDS011;4011;49.424;10.894;2023-06-22T06:47:02;8.63;;;6.40;;
7931;SDS011;4011;49.424;10.894;2023-06-22T06:52:24;9.55;;;6.47;;
7931;SDS011;4011;49.424;10.894;2023-06-22T06:57:50;9.50;;;6.22;;
7931;SDS011;4011;49.424;10.894;2023-06-22T07:03:15;8.30;;;6.32;;
7931;SDS011;4011;49.424;10.894;2023-06-22T07:08:39;7.15;;;5.93;;
7931;SDS011;4011;49.424;10.894;2023-06-22T07:14:03;9.40;;;6.20;;
7931;SDS011;4011;49.424;10.894;2023-06-22T07:19:25;10.25;;;6.50;;
7931;SDS011;4011;49.424;10.894;2023-06-22T07:24:47;7.88;;;6.05;;
7931;SDS011;4011;49.424;10.894;2023-06-22T07:30:11;8.93;;;6.28;;
7931;SDS011;4011;49.424;10.894;2023-06-22T07:35:32;9.95;;;5.57;;
7931;SDS011;4011;49.424;10.894;2023-06-22T07:40:54;10.95;;;6.32;;
7931;SDS011;4011;49.424;10.894;2023-06-22T07:46:17;12.23;;;5.75;;
7931;SDS011;4011;49.424;10.894;2023-06-22T07:51:38;10.55;;;6.80;;
7931;SDS011;4011;49.424;10.894;2023-06-22T07:57:00;8.63;;;6.35;;
7931;SDS011;4011;49.424;10.894;2023-06-22T08:02:25;11.85;;;6.15;;
7931;SDS011;4011;49.424;10.894;2023-06-22T08:07:50;8.90;;;5.90;;
7931;SDS011;4011;49.424;10.894;2023-06-22T08:13:11;8.65;;;5.68;;
7931;SDS011;4011;49.424;10.894;2023-06-22T08:18:37;8.50;;;5.47;;
7931;SDS011;4011;49.424;10.894;2023-06-22T08:23:58;7.90;;;5.45;;
7931;SDS011;4011;49.424;10.894;2023-06-22T08:29:20;7.95;;;5.65;;
7931;SDS011;4011;49.424;10.894;2023-06-22T08:34:43;7.82;;;5.63;;
7931;SDS011;4011;49.424;10.894;2023-06-22T08:40:05;8.88;;;5.80;;
7931;SDS011;4011;49.424;10.894;2023-06-22T08:45:28;7.47;;;5.57;;
7931;SDS011;4011;49.424;10.894;2023-06-22T08:50:51;7.18;;;5.03;;
7931;SDS011;4011;49.424;10.894;2023-06-22T08:56:12;7.47;;;5.28;;
7931;SDS011;4011;49.424;10.894;2023-06-22T09:01:34;8.85;;;5.65;;
7931;SDS011;4011;49.424;10.894;2023-06-22T09:06:57;8.02;;;5.05;;
7931;SDS011;4011;49.424;10.894;2023-06-22T09:12:19;8.30;;;5.20;;
7931;SDS011;4011;49.424;10.894;2023-06-22T09:17:45;8.43;;;5.80;;
7931;SDS011;4011;49.424;10.894;2023-06-22T09:23:09;8.05;;;5.40;;
7931;SDS011;4011;49.424;10.894;2023-06-22T09:28:31;9.32;;;5.68;;
7931;SDS011;4011;49.424;10.894;2023-06-22T09:33:53;7.88;;;5.00;;
7931;SDS011;4011;49.424;10.894;2023-06-22T09:39:17;7.68;;;5.32;;
7931;SDS011;4011;49.424;10.894;2023-06-22T09:44:39;8.63;;;5.85;;
7931;SDS011;4011;49.424;10.894;2023-06-22T09:50:01;8.35;;;5.22;;
7931;SDS011;4011;49.424;10.894;2023-06-22T09:55:24;7.22;;;5.43;;
7931;SDS011;4011;49.424;10.894;2023-06-22T10:00:46;9.25;;;5.80;;
7931;SDS011;4011;49.424;10.894;2023-06-22T10:06:07;12.23;;;6.80;;
7931;SDS011;4011;49.424;10.894;2023-06-22T10:11:31;15.02;;;6.93;;
7931;SDS011;4011;49.424;10.894;2023-06-22T10:16:55;11.70;;;7.05;;
7931;SDS011;4011;49.424;10.894;2023-06-22T10:22:16;12.52;;;7.47;;
7931;SDS011;4011;49.424;10.894;2023-06-22T10:27:40;11.05;;;7.05;;
7931;SDS011;4011;49.424;10.894;2023-06-22T10:33:05;11.13;;;5.82;;
7931;SDS011;4011;49.424;10.894;2023-06-22T10:38:26;14.38;;;6.88;;
7931;SDS011;4011;49.424;10.894;2023-06-22T10:43:49;12.23;;;6.10;;
7931;SDS011;4011;49.424;10.894;2023-06-22T10:49:11;11.30;;;6.80;;
7931;SDS011;4011;49.424;10.894;2023-06-22T10:54:34;11.45;;;6.18;;
7931;SDS011;4011;49.424;10.894;2023-06-22T10:59:57;10.98;;;6.05;;
7931;SDS011;4011;49.424;10.894;2023-06-22T11:05:18;9.90;;;6.20;;
7931;SDS011;4011;49.424;10.894;2023-06-22T11:10:41;12.88;;;6.10;;
7931;SDS011;4011;49.424;10.894;2023-06-22T11:16:09;8.75;;;5.53;;
7931;SDS011;4011;49.424;10.894;2023-06-22T11:21:30;8.45;;;4.78;;
7931;SDS011;4011;49.424;10.894;2023-06-22T11:26:53;9.13;;;5.50;;
7931;SDS011;4011;49.424;10.894;2023-06-22T11:32:16;9.80;;;5.70;;
7931;SDS011;4011;49.424;10.894;2023-06-22T11:37:37;9.75;;;5.45;;
7931;SDS011;4011;49.424;10.894;2023-06-22T11:43:00;8.85;;;5.30;;
7931;SDS011;4011;49.424;10.894;2023-06-22T11:48:24;8.85;;;5.80;;
7931;SDS011;4011;49.424;10.894;2023-06-22T11:53:46;9.23;;;5.53;;
7931;SDS011;4011;49.424;10.894;2023-06-22T11:59:11;7.95;;;5.68;;
7931;SDS011;4011;49.424;10.894;2023-06-22T12:04:35;8.98;;;4.95;;
7931;SDS011;4011;49.424;10.894;2023-06-22T12:09:57;8.27;;;5.07;;
7931;SDS011;4011;49.424;10.894;2023-06-22T12:15:20;11.05;;;5.55;;
7931;SDS011;4011;49.424;10.894;2023-06-22T12:20:50;10.00;;;5.75;;
7931;SDS011;4011;49.424;10.894;2023-06-22T12:26:12;8.23;;;5.20;;
7931;SDS011;4011;49.424;10.894;2023-06-22T12:31:35;8.95;;;5.47;;
7931;SDS011;4011;49.424;10.894;2023-06-22T12:37:00;9.40;;;5.38;;
7931;SDS011;4011;49.424;10.894;2023-06-22T12:42:22;9.02;;;5.38;;
7931;SDS011;4011;49.424;10.894;2023-06-22T12:47:47;9.93;;;5.35;;
7931;SDS011;4011;49.424;10.894;2023-06-22T12:53:11;8.15;;;5.07;;
7931;SDS011;4011;49.424;10.894;2023-06-22T12:58:32;8.50;;;5.45;;
7931;SDS011;4011;49.424;10.894;2023-06-22T13:03:54;7.57;;;5.30;;
7931;SDS011;4011;49.424;10.894;2023-06-22T13:09:18;10.52;;;5.03;;
7931;SDS011;4011;49.424;10.894;2023-06-22T13:14:40;8.43;;;4.65;;
7931;SDS011;4011;49.424;10.894;2023-06-22T13:20:03;8.80;;;5.38;;
7931;SDS011;4011;49.424;10.894;2023-06-22T13:25:27;7.65;;;4.97;;
7931;SDS011;4011;49.424;10.894;2023-06-22T13:30:48;9.88;;;5.18;;
7931;SDS011;4011;49.424;10.894;2023-06-22T13:36:10;10.18;;;5.20;;
7931;SDS011;4011;49.424;10.894;2023-06-22T13:41:33;8.48;;;4.35;;
7931;SDS011;4011;49.424;10.894;2023-06-22T13:46:57;7.25;;;5.00;;
7931;SDS011;4011;49.424;10.894;2023-06-22T13:52:18;7.85;;;4.60;;
7931;SDS011;4011;49.424;10.894;2023-06-22T13:57:42;7.80;;;4.93;;
7931;SDS011;4011;49.424;10.894;2023-06-22T14:03:04;8.02;;;4.60;;
7931;SDS011;4011;49.424;10.894;2023-06-22T14:08:26;12.23;;;5.85;;
7931;SDS011;4011;49.424;10.894;2023-06-22T14:19:37;9.63;;;5.38;;
7931;SDS011;4011;49.424;10.894;2023-06-22T14:24:59;8.13;;;5.10;;
7931;SDS011;4011;49.424;10.894;2023-06-22T14:30:21;9.60;;;5.53;;
7931;SDS011;4011;49.424;10.894;2023-06-22T14:35:44;7.95;;;5.00;;
7931;SDS011;4011;49.424;10.894;2023-06-22T14:41:05;9.68;;;5.07;;
7931;SDS011;4011;49.424;10.894;2023-06-22T14:46:28;9.32;;;5.72;;
7931;SDS011;4011;49.424;10.894;2023-06-22T14:51:51;8.98;;;5.35;;
7931;SDS011;4011;49.424;10.894;2023-06-22T14:57:13;8.38;;;5.53;;
7931;SDS011;4011;49.424;10.894;2023-06-22T15:02:38;7.07;;;5.15;;
7931;SDS011;4011;49.424;10.894;2023-06-22T15:08:00;9.02;;;5.35;;
7931;SDS011;4011;49.424;10.894;2023-06-22T15:13:22;9.77;;;5.82;;
7931;SDS011;4011;49.424;10.894;2023-06-22T15:18:43;10.45;;;5.68;;
7931;SDS011;4011;49.424;10.894;2023-06-22T15:24:07;8.52;;;5.57;;
7931;SDS011;4011;49.424;10.894;2023-06-22T15:29:28;8.88;;;5.70;;
7931;SDS011;4011;49.424;10.894;2023-06-22T15:34:54;9.38;;;5.80;;
7931;SDS011;4011;49.424;10.894;2023-06-22T15:40:17;9.55;;;5.55;;
7931;SDS011;4011;49.424;10.894;2023-06-22T15:45:39;9.75;;;5.32;;
7931;SDS011;4011;49.424;10.894;2023-06-22T15:51:01;11.07;;;5.75;;
7931;SDS011;4011;49.424;10.894;2023-06-22T15:56:25;11.25;;;5.80;;
7931;SDS011;4011;49.424;10.894;2023-06-22T16:01:47;10.20;;;5.43;;
7931;SDS011;4011;49.424;10.894;2023-06-22T16:07:08;9.77;;;5.13;;
7931;SDS011;4011;49.424;10.894;2023-06-22T16:12:33;9.73;;;5.25;;
7931;SDS011;4011;49.424;10.894;2023-06-22T16:17:55;7.97;;;5.40;;
7931;SDS011;4011;49.424;10.894;2023-06-22T16:23:16;8.88;;;5.30;;
7931;SDS011;4011;49.424;10.894;2023-06-22T16:28:39;9.45;;;5.13;;
7931;SDS011;4011;49.424;10.894;2023-06-22T16:34:01;8.23;;;4.82;;
7931;SDS011;4011;49.424;10.894;2023-06-22T16:39:23;8.73;;;5.30;;
7931;SDS011;4011;49.424;10.894;2023-06-22T16:44:47;8.05;;;4.95;;
7931;SDS011;4011;49.424;10.894;2023-06-22T16:50:08;8.70;;;5.03;;
7931;SDS011;4011;49.424;10.894;2023-06-22T16:55:31;7.63;;;4.35;;
7931;SDS011;4011;49.424;10.894;2023-06-22T17:00:56;8.63;;;5.00;;
7931;SDS011;4011;49.424;10.894;2023-06-22T17:06:19;7.72;;;4.53;;
7931;SDS011;4011;49.424;10.894;2023-06-22T17:11:42;8.80;;;4.80;;
7931;SDS011;4011;49.424;10.894;2023-06-22T17:17:05;8.63;;;5.05;;
7931;SDS011;4011;49.424;10.894;2023-06-22T17:22:28;9.02;;;4.93;;
7931;SDS011;4011;49.424;10.894;2023-06-22T17:27:58;7.18;;;4.70;;
7931;SDS011;4011;49.424;10.894;2023-06-22T17:33:21;7.00;;;4.90;;
7931;SDS011;4011;49.424;10.894;2023-06-22T17:38:43;7.55;;;4.68;;
7931;SDS011;4011;49.424;10.894;2023-06-22T17:44:05;7.63;;;4.88;;
7931;SDS011;4011;49.424;10.894;2023-06-22T17:49:30;8.60;;;4.72;;
7931;SDS011;4011;49.424;10.894;2023-06-22T17:54:52;7.35;;;4.63;;
7931;SDS011;4011;49.424;10.894;2023-06-22T18:00:14;6.80;;;4.60;;
7931;SDS011;4011;49.424;10.894;2023-06-22T18:05:37;7.60;;;4.70;;
7931;SDS011;4011;49.424;10.894;2023-06-22T18:10:59;8.23;;;4.68;;
7931;SDS011;4011;49.424;10.894;2023-06-22T18:16:24;7.10;;;4.60;;
7931;SDS011;4011;49.424;10.894;2023-06-22T18:21:48;7.60;;;4.63;;
7931;SDS011;4011;49.424;10.894;2023-06-22T18:27:10;7.15;;;4.88;;
7931;SDS011;4011;49.424;10.894;2023-06-22T18:32:31;6.55;;;4.50;;
7931;SDS011;4011;49.424;10.894;2023-06-22T18:37:54;7.60;;;4.45;;
7931;SDS011;4011;49.424;10.894;2023-06-22T18:43:19;8.02;;;4.32;;
7931;SDS011;4011;49.424;10.894;2023-06-22T18:48:41;7.45;;;4.80;;
7931;SDS011;4011;49.424;10.894;2023-06-22T18:54:05;6.95;;;4.97;;
7931;SDS011;4011;49.424;10.894;2023-06-22T18:59:39;6.82;;;4.50;;
7931;SDS011;4011;49.424;10.894;2023-06-22T19:05:06;8.70;;;4.75;;
7931;SDS011;4011;49.424;10.894;2023-06-22T19:10:30;8.25;;;4.57;;
7931;SDS011;4011;49.424;10.894;2023-06-22T19:15:58;6.40;;;4.63;;
7931;SDS011;4011;49.424;10.894;2023-06-22T19:21:20;7.95;;;4.50;;
7931;SDS011;4011;49.424;10.894;2023-06-22T19:26:45;7.40;;;4.78;;
7931;SDS011;4011;49.424;10.894;2023-06-22T19:32:11;6.95;;;4.97;;
7931;SDS011;4011;49.424;10.894;2023-06-22T19:37:34;8.40;;;4.32;;
7931;SDS011;4011;49.424;10.894;2023-06-22T19:42:57;7.28;;;4.43;;
7931;SDS011;4011;49.424;10.894;2023-06-22T19:48:18;9.02;;;4.97;;
7931;SDS011;4011;49.424;10.894;2023-06-22T19:53:40;5.72;;;4.30;;
7931;SDS011;4011;49.424;10.894;2023-06-22T19:59:09;7.40;;;4.53;;
7931;SDS011;4011;49.424;10.894;2023-06-22T20:04:30;7.40;;;4.25;;
7931;SDS011;4011;49.424;10.894;2023-06-22T20:10:04;7.72;;;4.90;;
7931;SDS011;4011;49.424;10.894;2023-06-22T20:15:27;6.20;;;4.53;;
7931;SDS011;4011;49.424;10.894;2023-06-22T20:20:49;8.45;;;4.28;;
7931;SDS011;4011;49.424;10.894;2023-06-22T20:26:12;8.98;;;4.57;;
7931;SDS011;4011;49.424;10.894;2023-06-22T20:31:39;6.68;;;4.20;;
7931;SDS011;4011;49.424;10.894;2023-06-22T20:37:01;8.55;;;4.30;;
7931;SDS011;4011;49.424;10.894;2023-06-22T20:42:22;10.75;;;4.47;;
7931;SDS011;4011;49.424;10.894;2023-06-22T20:47:45;8.52;;;4.50;;
7931;SDS011;4011;49.424;10.894;2023-06-22T20:53:07;8.65;;;4.60;;
7931;SDS011;4011;49.424;10.894;2023-06-22T20:58:28;9.65;;;4.50;;
7931;SDS011;4011;49.424;10.894;2023-06-22T21:03:51;8.05;;;4.30;;
7931;SDS011;4011;49.424;10.894;2023-06-22T21:09:13;9.38;;;4.13;;
7931;SDS011;4011;49.424;10.894;2023-06-22T21:14:34;9.27;;;4.85;;
7931;SDS011;4011;49.424;10.894;2023-06-22T21:19:57;8.15;;;4.30;;
7931;SDS011;4011;49.424;10.894;2023-06-22T21:25:19;5.53;;;3.90;;
7931;SDS011;4011;49.424;10.894;2023-06-22T21:30:41;6.30;;;3.85;;
7931;SDS011;4011;49.424;10.894;2023-06-22T21:36:04;8.45;;;4.43;;
7931;SDS011;4011;49.424;10.894;2023-06-22T21:41:26;7.93;;;4.50;;
7931;SDS011;4011;49.424;10.894;2023-06-22T21:46:47;7.70;;;4.28;;
7931;SDS011;4011;49.424;10.894;2023-06-22T21:52:10;6.32;;;3.78;;
7931;SDS011;4011;49.424;10.894;2023-06-22T21:57:32;6.35;;;4.15;;
7931;SDS011;4011;49.424;10.894;2023-06-22T22:02:54;6.93;;;4.30;;
7931;SDS011;4011;49.424;10.894;2023-06-22T22:08:17;8.48;;;4.30;;
7931;SDS011;4011;49.424;10.894;2023-06-22T22:13:38;7.10;;;3.90;;
7931;SDS011;4011;49.424;10.894;2023-06-22T22:19:00;8.23;;;4.07;;
7931;SDS011;4011;49.424;10.894;2023-06-22T22:24:24;8.25;;;4.28;;
7931;SDS011;4011;49.424;10.894;2023-06-22T22:29:45;7.60;;;4.10;;
7931;SDS011;4011;49.424;10.894;2023-06-22T22:35:07;7.47;;;3.85;;
7931;SDS011;4011;49.424;10.894;2023-06-22T22:40:30;9.30;;;4.40;;
7931;SDS011;4011;49.424;10.894;2023-06-22T22:45:53;6.10;;;4.13;;
7931;SDS011;4011;49.424;10.894;2023-06-22T22:51:15;8.25;;;4.30;;
7931;SDS011;4011;49.424;10.894;2023-06-22T22:56:39;8.15;;;3.60;;
7931;SDS011;4011;49.424;10.894;2023-06-22T23:02:00;6.38;;;3.60;;
7931;SDS011;4011;49.424;10.894;2023-06-22T23:07:22;6.57;;;4.05;;
7931;SDS011;4011;49.424;10.894;2023-06-22T23:12:47;7.68;;;4.15;;
7931;SDS011;4011;49.424;10.894;2023-06-22T23:18:09;5.38;;;3.50;;
7931;SDS011;4011;49.424;10.894;2023-06-22T23:23:31;6.75;;;3.55;;
7931;SDS011;4011;49.424;10.894;2023-06-22T23:28:54;7.13;;;4.07;;
7931;SDS011;4011;49.424;10.894;2023-06-22T23:34:16;7.00;;;4.07;;
7931;SDS011;4011;49.424;10.894;2023-06-22T23:39:37;7.85;;;3.70;;
7931;SDS011;4011;49.424;10.894;2023-06-22T23:45:01;7.18;;;4.05;;
7931;SDS011;4011;49.424;10.894;2023-06-22T23:50:23;7.38;;;4.15;;
7931;SDS011;4011;49.424;10.894;2023-06-22T23:55:47;5.72;;;3.80;;
